Aleknagik, Alaska
Current Conditions -  °F | °C
As of 5:36 AM on Monday 20 Oct 2014 (Local Time) from PADL Reporting Station
Overcast Overcast  
Wind Chill: 27°   Ceiling: 2700
Heat Index: 27°   Visibility: 10mi
Dew Point: 25°   Wind: 0mph
Humidity: 93%   Direction: NA
Pressure: 29.15"   Gusts: NA
Location:  59.27°N, 158.62°W
Report Text: PADL 201336Z 00000KT 10SM OVC027 M03/M04 A2915 RMK AO1
Loading
Personal Weather Stations






























Interactive Weather Map New forecast layout! Learn more

10-Day Weather Forecast

Advertisements
Track Severe Weather on mobile